Time;durP1;ratioP1;P1;durP2;ratioP2;P2;SDS_P1;SDS_P2;PMS_P1;PMS_P2;Temp;Humidity;BMP_temperature;BMP_pressure;BME280_temperature;BME280_humidity;BME280_pressure;Samples;Min_cycle;Max_cycle;Signal;HPM_P1;HPM_P2
2021/03/14 00:01:40;;;;;;;12.32;3.08;;;;;;;5.14;100.00;99946.63;5029172;28;20487;-62
2021/03/14 00:04:06;;;;;;;17.33;3.90;;;;;;;5.10;100.00;99943.34;5027705;28;20049;-62
2021/03/14 00:06:33;;;;;;;13.02;2.92;;;;;;;5.10;100.00;99954.03;5027812;28;20064;-61
2021/03/14 00:08:59;;;;;;;9.60;2.83;;;;;;;5.09;100.00;99952.31;5024252;28;20041;-61
2021/03/14 00:11:25;;;;;;;14.93;2.67;;;;;;;5.09;100.00;99955.00;5026681;28;20479;-61
2021/03/14 00:13:51;;;;;;;14.73;3.10;;;;;;;5.08;100.00;99946.16;5028653;28;20103;-62
2021/03/14 00:16:17;;;;;;;12.95;2.70;;;;;;;5.07;100.00;99964.94;5025536;28;20057;-62
2021/03/14 00:18:43;;;;;;;17.42;3.20;;;;;;;5.10;100.00;99970.03;5013760;28;20049;-62
2021/03/14 00:21:10;;;;;;;9.38;2.83;;;;;;;5.13;100.00;99974.28;5023736;28;20045;-62
2021/03/14 00:23:37;;;;;;;13.25;2.30;;;;;;;5.15;100.00;99973.16;5028166;28;20061;-62
2021/03/14 00:26:05;;;;;;;15.23;2.53;;;;;;;5.12;100.00;99980.56;5025872;28;20049;-61
2021/03/14 00:28:31;;;;;;;20.73;3.72;;;;;;;5.08;100.00;99988.00;5022321;28;20065;-61
2021/03/14 00:30:57;;;;;;;12.32;2.80;;;;;;;5.06;100.00;99995.25;5024382;28;20041;-63
2021/03/14 00:33:24;;;;;;;12.80;2.92;;;;;;;5.06;100.00;99992.56;5026382;28;20041;-61
2021/03/14 00:35:51;;;;;;;10.68;2.50;;;;;;;5.03;100.00;99996.34;5026545;28;20045;-61
2021/03/14 00:38:17;;;;;;;13.77;2.90;;;;;;;4.97;100.00;99998.66;5015860;28;20392;-62
2021/03/14 00:40:44;;;;;;;11.65;2.78;;;;;;;4.94;100.00;100002.41;5013877;28;20367;-62
2021/03/14 00:43:10;;;;;;;17.33;4.00;;;;;;;4.84;100.00;100006.75;5027474;28;20438;-62
2021/03/14 00:45:38;;;;;;;15.55;3.08;;;;;;;4.79;100.00;100012.47;5026290;28;20099;-61
2021/03/14 00:48:06;;;;;;;12.82;3.88;;;;;;;4.80;100.00;100016.84;5027801;28;20402;-61
2021/03/14 00:50:33;;;;;;;11.93;2.47;;;;;;;4.82;100.00;100014.88;5027615;28;20072;-61
2021/03/14 00:52:59;;;;;;;14.73;2.83;;;;;;;4.90;100.00;100023.13;5019608;28;20404;-62
2021/03/14 00:55:25;;;;;;;14.25;2.72;;;;;;;4.88;100.00;100034.88;5015795;28;20084;-62
2021/03/14 00:57:52;;;;;;;13.02;2.55;;;;;;;4.90;100.00;100033.81;5018771;28;20490;-62
2021/03/14 01:00:19;;;;;;;11.38;3.03;;;;;;;4.88;100.00;100029.56;5026255;28;20061;-62
2021/03/14 01:02:45;;;;;;;14.57;2.50;;;;;;;4.89;100.00;100032.09;5027163;28;20449;-62
2021/03/14 01:05:12;;;;;;;14.10;2.85;;;;;;;4.89;100.00;100040.09;5028046;28;20132;-61
2021/03/14 01:07:37;;;;;;;10.40;2.65;;;;;;;4.88;100.00;100043.72;5027595;28;20064;-62
2021/03/14 01:10:04;;;;;;;13.93;2.95;;;;;;;4.90;100.00;100044.47;5028708;28;20061;-62
2021/03/14 01:12:30;;;;;;;13.48;2.80;;;;;;;4.94;100.00;100044.22;5029704;28;20053;-61
2021/03/14 01:14:57;;;;;;;15.52;3.30;;;;;;;4.92;100.00;100049.69;5028956;28;20054;-62
2021/03/14 01:17:23;;;;;;;13.15;2.45;;;;;;;4.90;100.00;100055.13;5029713;28;20429;-62
2021/03/14 01:19:49;;;;;;;13.27;2.72;;;;;;;4.89;100.00;100058.75;5032691;28;20060;-62
2021/03/14 01:24:46;;;;;;;19.58;3.10;;;;;;;4.71;100.00;100063.72;5066742;23;20064;-62
2021/03/14 01:27:12;;;;;;;8.95;2.50;;;;;;;4.76;100.00;100068.69;5059798;28;20048;-61
2021/03/14 01:29:39;;;;;;;14.10;2.70;;;;;;;4.80;100.00;100070.16;5063108;28;20147;-62
2021/03/14 01:32:06;;;;;;;11.75;2.28;;;;;;;4.81;100.00;100076.31;5059189;28;20061;-61
2021/03/14 01:34:32;;;;;;;9.98;2.33;;;;;;;4.80;100.00;100075.47;5060007;28;20074;-62
2021/03/14 01:36:58;;;;;;;11.55;2.60;;;;;;;4.82;100.00;100088.69;5059223;28;20052;-62
2021/03/14 01:39:24;;;;;;;12.05;2.72;;;;;;;4.83;100.00;100085.03;5062061;28;20079;-61
2021/03/14 01:41:50;;;;;;;8.15;2.45;;;;;;;4.90;100.00;100086.25;5060784;28;20052;-61
2021/03/14 01:44:16;;;;;;;17.77;3.08;;;;;;;4.88;100.00;100089.06;5060824;28;20045;-61
2021/03/14 01:46:42;;;;;;;12.48;2.50;;;;;;;4.91;100.00;100086.16;5061097;28;20049;-62
2021/03/14 01:49:10;;;;;;;16.15;3.45;;;;;;;4.84;100.00;100092.09;5060021;28;20472;-61
2021/03/14 01:51:36;;;;;;;11.00;2.65;;;;;;;4.76;100.00;100098.00;5060242;28;20117;-62
2021/03/14 01:54:35;;;;;;;10.10;2.67;;;;;;;4.76;100.00;100098.00;5061810;22;20057;-62
2021/03/14 01:57:01;;;;;;;;;;;;;;;4.77;100.00;100098.84;5005783;28;20052;-63
2021/03/14 01:59:27;;;;;;;16.27;2.63;;;;;;;4.75;100.00;100098.97;5010527;28;20386;-62
2021/03/14 02:01:54;;;;;;;14.68;2.83;;;;;;;4.79;100.00;100104.94;5010058;28;20045;-62
2021/03/14 02:04:21;;;;;;;14.88;3.00;;;;;;;4.75;100.00;100106.97;5009229;28;20557;-62
2021/03/14 02:06:47;;;;;;;15.52;3.03;;;;;;;4.77;100.00;100110.38;5009614;28;20060;-61
2021/03/14 02:09:13;;;;;;;14.40;2.70;;;;;;;4.76;100.00;100111.34;5009159;28;20418;-61
2021/03/14 02:11:44;;;;;;;11.50;2.90;;;;;;;4.70;100.00;100117.13;5009671;28;20050;-62
2021/03/14 02:14:10;;;;;;;12.18;2.38;;;;;;;4.64;100.00;100117.59;5009854;28;20042;-62
2021/03/14 02:16:41;;;;;;;12.88;2.45;;;;;;;4.63;100.00;100126.56;5009665;28;20059;-61
2021/03/14 02:19:11;;;;;;;12.63;2.70;;;;;;;4.63;100.00;100122.06;5006522;28;20062;-62
2021/03/14 02:21:38;;;;;;;14.45;2.85;;;;;;;4.66;100.00;100131.66;5009522;28;20041;-62
2021/03/14 02:24:07;;;;;;;11.27;2.45;;;;;;;4.65;100.00;100140.63;5009855;28;20140;-63
2021/03/14 02:26:35;;;;;;;14.60;2.47;;;;;;;4.71;100.00;100141.00;5007551;28;20060;-62
2021/03/14 02:29:03;;;;;;;16.25;2.72;;;;;;;4.73;100.00;100143.56;5006984;28;20062;-63
2021/03/14 02:31:30;;;;;;;17.88;2.92;;;;;;;4.70;100.00;100143.78;5010421;28;20056;-61
2021/03/14 02:34:00;;;;;;;11.90;2.42;;;;;;;4.68;100.00;100151.91;5008147;28;20053;-61
2021/03/14 02:36:29;;;;;;;9.82;2.53;;;;;;;4.70;100.00;100157.13;5009743;28;20050;-63
2021/03/14 02:38:55;;;;;;;10.33;2.37;;;;;;;4.74;100.00;100163.91;5006946;28;20054;-62
2021/03/14 02:41:22;;;;;;;11.25;2.35;;;;;;;4.71;100.00;100173.00;5009724;28;20390;-63
2021/03/14 02:43:48;;;;;;;16.83;3.15;;;;;;;4.75;100.00;100165.63;5010896;28;20070;-63
2021/03/14 02:46:16;;;;;;;16.13;3.17;;;;;;;4.74;100.00;100166.56;5010238;28;20050;-62
2021/03/14 02:48:42;;;;;;;16.67;2.65;;;;;;;4.76;100.00;100169.97;5005480;28;20053;-62
2021/03/14 02:51:09;;;;;;;16.67;2.90;;;;;;;4.72;100.00;100164.03;5010023;28;20049;-62
2021/03/14 02:53:36;;;;;;;12.57;3.42;;;;;;;4.70;100.00;100173.97;5006538;28;20107;-61
2021/03/14 02:56:03;;;;;;;16.50;3.03;;;;;;;4.72;100.00;100174.69;4998633;28;20045;-63
2021/03/14 02:58:31;;;;;;;17.52;3.15;;;;;;;4.78;100.00;100177.88;4985737;28;20061;-62
2021/03/14 03:00:57;;;;;;;15.60;2.83;;;;;;;4.78;100.00;100183.19;4996685;28;20442;-62
2021/03/14 03:03:25;;;;;;;17.10;2.72;;;;;;;4.79;100.00;100188.41;5008570;28;20054;-62
2021/03/14 03:05:56;;;;;;;12.55;3.05;;;;;;;4.70;100.00;100189.13;5005595;28;20046;-63
2021/03/14 03:08:23;;;;;;;16.08;2.58;;;;;;;4.77;100.00;100189.50;5006654;28;20399;-62
2021/03/14 03:10:50;;;;;;;11.10;3.03;;;;;;;4.77;100.00;100195.69;5007527;28;20100;-62
2021/03/14 03:13:17;;;;;;;11.27;3.20;;;;;;;4.80;100.00;100192.78;5007212;28;20112;-62
2021/03/14 03:15:45;;;;;;;12.57;2.40;;;;;;;4.72;100.00;100195.16;5005349;28;20172;-62
2021/03/14 03:18:14;;;;;;;16.08;2.95;;;;;;;4.72;100.00;100201.34;5005528;28;20065;-62
2021/03/14 03:20:42;;;;;;;17.02;2.40;;;;;;;4.69;100.00;100195.41;5008726;28;20054;-62
2021/03/14 03:23:08;;;;;;;18.25;3.38;;;;;;;4.68;100.00;100209.69;5007919;28;20411;-63
2021/03/14 03:25:35;;;;;;;18.73;2.70;;;;;;;4.64;100.00;100210.88;5003110;28;20054;-62
2021/03/14 03:28:01;;;;;;;13.48;2.38;;;;;;;4.59;100.00;100205.03;5005472;28;20049;-62
2021/03/14 03:30:28;;;;;;;8.32;2.63;;;;;;;4.63;100.00;100217.19;5005680;28;20053;-61
2021/03/14 03:32:55;;;;;;;13.75;3.00;;;;;;;4.59;100.00;100226.38;4989321;28;20495;-62
2021/03/14 03:35:22;;;;;;;14.88;2.60;;;;;;;4.54;100.00;100219.56;4985038;28;20400;-62
2021/03/14 03:37:50;;;;;;;15.75;3.20;;;;;;;4.54;100.00;100224.88;4985989;28;20046;-62
2021/03/14 03:40:20;;;;;;;14.57;2.97;;;;;;;4.50;100.00;100219.91;4987906;28;20061;-62
2021/03/14 03:42:51;;;;;;;9.20;2.72;;;;;;;4.51;100.00;100225.13;4987631;28;20050;-62
2021/03/14 03:45:18;;;;;;;17.23;3.22;;;;;;;4.46;100.00;100235.28;4987338;28;20108;-62
2021/03/14 03:47:45;;;;;;;15.00;2.78;;;;;;;4.51;100.00;100234.94;4984968;28;20057;-63
2021/03/14 03:50:14;;;;;;;16.58;2.65;;;;;;;4.56;100.00;100241.63;4987226;28;20514;-62
2021/03/14 03:52:42;;;;;;;16.13;3.13;;;;;;;4.50;100.00;100244.72;4987953;28;20064;-62
2021/03/14 03:55:11;;;;;;;16.65;3.03;;;;;;;4.51;100.00;100249.09;5000207;28;20049;-62
2021/03/14 03:57:39;;;;;;;10.13;2.50;;;;;;;4.59;100.00;100250.34;5003218;28;20045;-62
2021/03/14 04:00:08;;;;;;;11.40;2.55;;;;;;;4.55;100.00;100253.25;5005857;28;20057;-63
2021/03/14 04:02:36;;;;;;;11.73;2.70;;;;;;;4.54;100.00;100262.19;5005263;28;20148;-63
2021/03/14 04:05:04;;;;;;;14.32;2.80;;;;;;;4.49;100.00;100259.03;5007071;28;20068;-62
2021/03/14 04:07:32;;;;;;;15.95;2.90;;;;;;;4.43;100.00;100262.16;5002736;28;20046;-62
2021/03/14 04:09:58;;;;;;;14.18;2.80;;;;;;;4.39;100.00;100268.66;5004528;28;20574;-62
2021/03/14 04:12:25;;;;;;;13.85;2.85;;;;;;;4.41;100.00;100266.72;5004948;28;20442;-62
2021/03/14 04:14:51;;;;;;;19.00;3.50;;;;;;;4.37;100.00;100266.09;5013448;28;20049;-62
2021/03/14 04:17:18;;;;;;;13.40;2.72;;;;;;;4.38;100.00;100274.94;5022698;28;20061;-63
2021/03/14 04:19:46;;;;;;;18.95;2.95;;;;;;;4.44;100.00;100276.31;5025792;28;20068;-62
2021/03/14 04:22:12;;;;;;;22.02;3.55;;;;;;;4.43;100.00;100282.59;5024015;28;20498;-62
2021/03/14 04:24:39;;;;;;;15.18;3.15;;;;;;;4.42;100.00;100279.09;5026445;28;20057;-62
2021/03/14 04:27:06;;;;;;;14.73;2.97;;;;;;;4.43;100.00;100291.47;5022680;28;20064;-61
2021/03/14 04:29:33;;;;;;;12.25;2.85;;;;;;;4.44;100.00;100292.31;5026579;28;20056;-62
2021/03/14 04:32:01;;;;;;;13.90;2.33;;;;;;;4.49;100.00;100285.69;5024231;28;20053;-61
2021/03/14 04:34:28;;;;;;;14.23;3.22;;;;;;;4.54;100.00;100298.66;5006922;28;20548;-62
2021/03/14 04:36:54;;;;;;;17.90;2.70;;;;;;;4.51;100.00;100297.06;5021336;28;20081;-63
2021/03/14 04:39:21;;;;;;;15.35;2.45;;;;;;;4.53;100.00;100304.94;5021552;28;20069;-62
2021/03/14 04:41:48;;;;;;;13.73;3.35;;;;;;;4.55;100.00;100309.22;5025484;28;20057;-62
2021/03/14 04:44:17;;;;;;;16.52;2.60;;;;;;;4.55;100.00;100309.22;5027778;28;20053;-61
2021/03/14 04:46:46;;;;;;;13.40;2.65;;;;;;;4.59;100.00;100311.66;5028992;28;20089;-62
2021/03/14 04:49:13;;;;;;;14.32;2.72;;;;;;;4.61;100.00;100315.91;5023972;28;20049;-62
2021/03/14 04:51:45;;;;;;;15.70;2.47;;;;;;;4.54;100.00;100310.16;5023851;28;20045;-61
2021/03/14 04:54:13;;;;;;;11.32;2.35;;;;;;;4.55;100.00;100327.88;5012554;28;20056;-63
2021/03/14 04:56:41;;;;;;;15.88;2.72;;;;;;;4.56;100.00;100328.72;5023910;28;20050;-62
2021/03/14 04:59:09;;;;;;;8.95;2.55;;;;;;;4.60;100.00;100329.34;5007235;28;20081;-63
2021/03/14 05:01:38;;;;;;;12.55;2.70;;;;;;;4.60;100.00;100334.69;5007407;28;20054;-62
2021/03/14 05:04:08;;;;;;;12.53;2.17;;;;;;;4.59;100.00;100335.66;5010723;28;20050;-62
2021/03/14 05:06:35;;;;;;;13.52;2.63;;;;;;;4.59;100.00;100340.97;5010735;28;20301;-63
2021/03/14 05:09:02;;;;;;;11.75;2.58;;;;;;;4.59;100.00;100344.47;5007181;28;20054;-62
2021/03/14 05:11:29;;;;;;;13.55;2.33;;;;;;;4.64;100.00;100346.81;5009816;28;20057;-62
2021/03/14 05:13:56;;;;;;;10.00;2.72;;;;;;;4.62;100.00;100343.41;5006743;28;20427;-62
2021/03/14 05:16:26;;;;;;;18.65;3.10;;;;;;;4.56;100.00;100348.25;5008813;28;20046;-62
2021/03/14 05:18:52;;;;;;;16.25;3.05;;;;;;;4.55;100.00;100361.69;5008918;28;20119;-62
2021/03/14 05:21:19;;;;;;;12.73;2.92;;;;;;;4.56;100.00;100368.69;5007156;28;20042;-62
2021/03/14 05:23:46;;;;;;;10.38;2.70;;;;;;;4.54;100.00;100368.81;5007269;28;20093;-61
2021/03/14 05:26:13;;;;;;;11.07;2.75;;;;;;;4.56;100.00;100369.56;5010763;28;20049;-62
2021/03/14 05:28:41;;;;;;;11.65;2.58;;;;;;;4.54;100.00;100379.47;5014125;28;20124;-61
2021/03/14 05:31:28;;;;;;;13.75;2.35;;;;;;;4.56;100.00;100382.00;5008205;28;20376;-61
2021/03/14 05:33:56;;;;;;;16.20;2.75;;;;;;;4.55;100.00;100383.00;5010814;28;20062;-60
2021/03/14 05:36:24;;;;;;;12.65;2.90;;;;;;;4.56;100.00;100385.56;5070096;22;20052;-62
2021/03/14 05:38:50;;;;;;;12.55;2.92;;;;;;;4.55;100.00;100385.66;5103535;27;20040;-61
2021/03/14 05:41:16;;;;;;;21.52;3.15;;;;;;;4.53;100.00;100404.44;5111463;27;20104;-61
2021/03/14 05:43:43;;;;;;;12.98;2.60;;;;;;;4.52;100.00;100402.72;5113313;27;20512;-61
2021/03/14 05:46:09;;;;;;;12.45;2.78;;;;;;;4.52;100.00;100401.84;5120495;27;20052;-61
2021/03/14 05:48:35;;;;;;;14.75;2.78;;;;;;;4.52;100.00;100408.03;5118430;27;20058;-61
2021/03/14 05:51:01;;;;;;;14.23;2.60;;;;;;;4.55;100.00;100413.16;5120765;27;20047;-61
2021/03/14 05:53:29;;;;;;;10.63;2.15;;;;;;;4.64;100.00;100417.00;5120906;27;20051;-62
2021/03/14 05:55:55;;;;;;;11.93;2.75;;;;;;;4.60;100.00;100423.50;5120253;27;20054;-61
2021/03/14 05:58:22;;;;;;;11.23;2.83;;;;;;;4.57;100.00;100437.88;5106195;27;20063;-61
2021/03/14 06:00:49;;;;;;;17.08;2.80;;;;;;;4.60;100.00;100425.31;5113191;27;20438;-62
2021/03/14 06:03:16;;;;;;;15.07;3.20;;;;;;;4.62;100.00;100434.03;5119352;27;20054;-62
2021/03/14 06:05:42;;;;;;;12.32;2.92;;;;;;;4.63;100.00;100439.25;5120833;27;20047;-60
2021/03/14 06:08:08;;;;;;;14.18;2.83;;;;;;;4.60;100.00;100436.81;5117878;27;20058;-62
2021/03/14 06:10:35;;;;;;;12.45;2.95;;;;;;;4.61;100.00;100443.00;5119991;27;20056;-62
2021/03/14 06:13:01;;;;;;;11.70;2.35;;;;;;;4.59;100.00;100444.94;5119557;27;20051;-63
2021/03/14 06:15:28;;;;;;;11.57;2.40;;;;;;;4.63;100.00;100443.75;5119602;27;20055;-62
2021/03/14 06:17:54;;;;;;;13.05;3.25;;;;;;;4.62;100.00;100450.03;5111938;27;20440;-62
2021/03/14 06:20:42;;;;;;;18.70;3.40;;;;;;;4.63;100.00;100454.41;5120186;27;20047;-62
2021/03/14 06:23:10;;;;;;;13.82;3.83;;;;;;;4.70;100.00;100466.34;5112877;27;20139;-62
2021/03/14 06:25:38;;;;;;;15.05;3.70;;;;;;;4.68;100.00;100466.47;5115221;27;20048;-61
2021/03/14 06:28:05;;;;;;;9.73;3.35;;;;;;;4.70;100.00;100474.34;5113829;27;20404;-61
2021/03/14 06:30:33;;;;;;;15.20;3.70;;;;;;;4.79;100.00;100478.19;5107220;27;20462;-62
2021/03/14 06:33:04;;;;;;;14.93;3.33;;;;;;;4.80;100.00;100482.53;5115643;27;20047;-61
2021/03/14 06:35:38;;;;;;;13.98;3.03;;;;;;;4.80;100.00;100482.53;5111239;27;20050;-61
2021/03/14 06:38:21;;;;;;;17.90;3.55;;;;;;;4.79;100.00;100483.53;5118994;27;20092;-62
2021/03/14 06:40:50;;;;;;;11.15;3.10;;;;;;;4.80;100.00;100488.75;5117659;27;20100;-63
2021/03/14 06:43:17;;;;;;;17.23;3.47;;;;;;;4.84;100.00;100492.88;5120054;27;20075;-61
2021/03/14 06:45:45;;;;;;;13.70;3.38;;;;;;;4.84;100.00;100508.88;5118050;27;20043;-61
2021/03/14 06:48:11;;;;;;;15.55;4.10;;;;;;;4.90;100.00;100510.25;5118947;27;20047;-62
2021/03/14 06:50:40;;;;;;;17.58;4.00;;;;;;;4.93;100.00;100517.19;5110436;27;20138;-62
2021/03/14 06:53:08;;;;;;;18.17;4.60;;;;;;;4.97;100.00;100514.19;5117113;27;20100;-63
2021/03/14 06:55:34;;;;;;;19.33;4.70;;;;;;;5.00;100.00;100518.47;5119083;27;20043;-62
2021/03/14 06:58:19;;;;;;;13.60;3.95;;;;;;;5.05;100.00;100532.31;5116849;27;20496;-62
2021/03/14 07:01:10;;;;;;;19.88;5.18;;;;;;;5.14;100.00;100533.47;5111527;27;20043;-62
2021/03/14 07:03:38;;;;;;;16.88;4.65;;;;;;;5.13;100.00;100543.31;5118806;27;20480;-62
2021/03/14 07:06:19;;;;;;;13.32;4.30;;;;;;;5.13;100.00;100542.47;5117624;27;20044;-61
2021/03/14 07:08:47;;;;;;;14.65;4.95;;;;;;;5.16;100.00;100551.09;5117970;27;20327;-62
2021/03/14 07:11:13;;;;;;;17.30;4.43;;;;;;;5.19;100.00;100558.88;5116922;27;20047;-61
2021/03/14 07:13:40;;;;;;;14.65;4.65;;;;;;;5.23;100.00;100560.38;5111276;27;20039;-61
2021/03/14 07:16:07;;;;;;;16.83;5.25;;;;;;;5.28;100.00;100565.38;5100936;27;20089;-62
2021/03/14 07:18:33;;;;;;;12.57;5.40;;;;;;;5.34;100.00;100575.63;5116209;27;20047;-61
2021/03/14 07:21:22;;;;;;;18.05;5.30;;;;;;;5.33;100.00;100567.72;5115906;22;21037;-62
2021/03/14 07:23:48;;;;;;;18.13;4.68;;;;;;;5.43;100.00;100576.78;5020455;28;20052;-62
2021/03/14 07:26:14;;;;;;;11.77;4.60;;;;;;;5.46;100.00;100575.72;5022314;28;20050;-62
2021/03/14 07:28:41;;;;;;;17.50;5.28;;;;;;;5.50;100.00;100588.72;5019013;28;20491;-62
2021/03/14 07:31:08;;;;;;;16.23;4.50;;;;;;;5.50;100.00;100586.06;4994571;28;20056;-62
2021/03/14 07:33:34;;;;;;;12.75;5.00;;;;;;;5.54;100.00;100592.88;4999259;28;20046;-63
2021/03/14 07:36:01;;;;;;;16.77;4.90;;;;;;;5.58;100.00;100597.03;5016431;28;20080;-63
2021/03/14 07:38:27;;;;;;;16.58;4.95;;;;;;;5.54;100.00;100603.56;5014087;28;20396;-62
2021/03/14 07:40:53;;;;;;;18.35;4.57;;;;;;;5.64;100.00;100609.09;5020825;28;20518;-61
2021/03/14 07:43:19;;;;;;;17.17;5.30;;;;;;;5.61;100.00;100615.50;5020863;28;20052;-63
2021/03/14 07:45:46;;;;;;;20.77;4.88;;;;;;;5.55;100.00;100610.63;5021520;28;20057;-62
2021/03/14 07:48:13;;;;;;;14.32;5.32;;;;;;;5.57;100.00;100619.34;5009402;28;20065;-62
2021/03/14 07:50:45;;;;;;;13.20;4.82;;;;;;;5.57;100.00;100627.38;5010223;28;20041;-62
2021/03/14 07:53:13;;;;;;;19.50;5.22;;;;;;;5.57;100.00;100622.03;5018184;28;20042;-63
2021/03/14 07:55:43;;;;;;;18.58;5.07;;;;;;;5.61;100.00;100626.19;5017934;28;20097;-63
2021/03/14 07:58:12;;;;;;;12.70;4.68;;;;;;;5.61;100.00;100641.38;5017424;28;20050;-62
2021/03/14 08:00:40;;;;;;;19.42;4.70;;;;;;;5.66;100.00;100649.03;5018441;28;20545;-61
2021/03/14 08:03:09;;;;;;;16.10;4.97;;;;;;;5.71;100.00;100646.88;5015689;28;20392;-62
2021/03/14 08:05:49;;;;;;;18.33;5.93;;;;;;;5.81;100.00;100655.09;5018041;28;20049;-61
2021/03/14 08:08:46;;;;;;;15.15;5.07;;;;;;;5.86;100.00;100656.47;5017221;28;20053;-63
2021/03/14 08:11:26;;;;;;;14.73;4.63;;;;;;;5.85;100.00;100661.94;5017302;28;20049;-62
2021/03/14 08:13:52;;;;;;;9.82;4.72;;;;;;;5.93;100.00;100667.56;5018745;28;20053;-61
2021/03/14 08:16:18;;;;;;;15.20;5.00;;;;;;;5.89;100.00;100674.94;5016633;28;20068;-61
2021/03/14 08:18:47;;;;;;;14.00;5.15;;;;;;;6.02;100.00;100676.75;5015464;28;20787;-62
2021/03/14 08:21:38;;;;;;;19.05;4.95;;;;;;;6.09;100.00;100678.88;5017954;28;20060;-62
2021/03/14 08:24:05;;;;;;;15.07;4.95;;;;;;;6.16;100.00;100681.94;5009392;28;20041;-61
2021/03/14 08:26:33;;;;;;;13.82;5.13;;;;;;;6.27;100.00;100687.38;5022370;28;20053;-63
2021/03/14 08:29:01;;;;;;;13.02;5.22;;;;;;;6.24;100.00;100689.41;5086046;23;20060;-62
2021/03/14 08:31:45;;;;;;;15.52;5.28;;;;;;;6.37;100.00;100682.19;5077676;28;20348;-62
2021/03/14 08:34:17;;;;;;;16.42;4.68;;;;;;;6.55;100.00;100693.38;5077223;28;20078;-63
2021/03/14 08:36:46;;;;;;;15.93;4.55;;;;;;;6.59;100.00;100689.47;5093876;22;20056;31
2021/03/14 08:39:21;;;;;;;14.77;4.68;;;;;;;6.67;100.00;100694.25;5014697;28;20056;-62
2021/03/14 08:41:48;;;;;;;15.25;4.65;;;;;;;6.83;100.00;100700.16;5008228;28;20050;-62
2021/03/14 08:44:31;;;;;;;10.65;4.50;;;;;;;6.75;100.00;100704.38;5024014;28;20461;-62
2021/03/14 08:46:58;;;;;;;13.55;5.10;;;;;;;6.76;100.00;100714.13;5024851;28;20060;-62
2021/03/14 08:49:26;;;;;;;10.68;4.47;;;;;;;6.75;100.00;100721.28;5023166;28;20069;-62
2021/03/14 08:51:52;;;;;;;13.35;4.20;;;;;;;6.83;100.00;100723.38;5027391;28;20410;-63
2021/03/14 08:54:25;;;;;;;12.27;3.90;;;;;;;6.95;100.00;100725.13;5024923;28;20041;-62
2021/03/14 08:56:54;;;;;;;14.23;4.55;;;;;;;7.00;100.00;100725.63;5033720;28;20041;-62
2021/03/14 08:59:20;;;;;;;13.43;4.00;;;;;;;7.01;100.00;100730.00;5035419;28;20410;-62
2021/03/14 09:01:52;;;;;;;12.57;3.80;;;;;;;7.01;100.00;100735.38;5032239;28;20490;-62
2021/03/14 09:06:47;;;;;;;15.95;4.28;;;;;;;7.04;100.00;100731.63;5078048;23;20048;-62
2021/03/14 09:09:16;;;;;;;9.10;3.80;;;;;;;7.22;100.00;100737.38;5077282;28;20047;-62
2021/03/14 09:11:45;;;;;;;11.18;4.28;;;;;;;7.31;100.00;100744.69;5077623;28;20059;-63
2021/03/14 09:14:29;;;;;;;10.75;4.28;;;;;;;7.36;100.00;100738.97;5076574;28;20094;-62
2021/03/14 09:16:56;;;;;;;15.40;4.38;;;;;;;7.33;100.00;100744.56;5076384;28;20148;-62
2021/03/14 09:19:28;;;;;;;12.10;4.20;;;;;;;7.28;100.00;100742.25;5076315;28;20508;-62
2021/03/14 09:21:56;;;;;;;11.45;4.18;;;;;;;7.23;100.00;100751.59;5078167;28;20063;-62
2021/03/14 09:24:33;;;;;;;15.10;4.83;;;;;;;7.20;100.00;100755.41;5075673;28;20048;-62
2021/03/14 09:27:02;;;;;;;15.93;3.90;;;;;;;7.23;100.00;100752.47;5076391;28;20087;-63
2021/03/14 09:29:43;;;;;;;12.02;3.40;;;;;;;7.14;100.00;100753.16;5074738;28;20047;-62
2021/03/14 09:32:31;;;;;;;9.98;3.40;;;;;;;7.04;100.00;100754.81;5080722;28;20076;-62
2021/03/14 09:35:17;;;;;;;14.00;3.30;;;;;;;7.18;100.00;100752.84;5075685;28;20064;-62
2021/03/14 09:37:46;;;;;;;15.50;4.00;;;;;;;7.34;100.00;100751.66;5080163;28;20485;-62
2021/03/14 09:40:34;;;;;;;10.32;3.63;;;;;;;7.42;100.00;100767.13;5081122;28;20404;-62
2021/03/14 09:43:10;;;;;;;13.05;3.50;;;;;;;7.32;100.00;100759.81;5081710;28;20051;-62
2021/03/14 09:45:37;;;;;;;14.82;4.30;;;;;;;7.22;100.00;100769.50;5080084;28;20057;-62
2021/03/14 09:48:08;;;;;;;9.50;3.92;;;;;;;6.91;100.00;100777.16;5077303;28;20040;-62
2021/03/14 09:50:39;;;;;;;12.90;3.13;;;;;;;6.79;100.00;100794.13;5081457;28;20055;-61
2021/03/14 09:53:08;;;;;;;12.90;3.25;;;;;;;6.74;100.00;100791.78;5081428;28;20515;-62
2021/03/14 09:55:36;;;;;;;10.27;3.70;;;;;;;6.65;100.00;100798.69;5080793;28;20431;-62
2021/03/14 09:58:03;;;;;;;15.70;3.75;;;;;;;6.60;100.00;100798.16;5078751;28;20190;-63
2021/03/14 10:00:31;;;;;;;9.43;3.33;;;;;;;6.65;100.00;100806.72;5080177;28;20409;-62
2021/03/14 10:03:01;;;;;;;14.60;3.28;;;;;;;6.44;100.00;100808.25;5078885;22;20056;-62
2021/03/14 10:05:34;;;;;;;11.18;3.17;;;;;;;6.40;100.00;100817.47;5042538;28;20490;-62
2021/03/14 10:08:00;;;;;;;11.23;3.38;;;;;;;6.54;100.00;100820.00;5038243;28;20045;-63
2021/03/14 10:10:28;;;;;;;10.35;3.72;;;;;;;6.68;100.00;100824.31;5037844;28;20046;-63
2021/03/14 10:12:54;;;;;;;10.05;3.08;;;;;;;6.78;100.00;100827.19;5024123;28;20057;-62
2021/03/14 10:15:21;;;;;;;15.02;2.95;;;;;;;6.94;100.00;100832.28;5022270;28;20057;-62
2021/03/14 10:17:47;;;;;;;12.38;2.55;;;;;;;6.93;100.00;100827.88;5009981;28;20498;-62
2021/03/14 10:20:14;;;;;;;11.75;2.70;;;;;;;7.19;100.00;100817.91;5022034;28;20057;-62
2021/03/14 10:22:40;;;;;;;14.23;2.65;;;;;;;7.48;100.00;100818.41;5023061;28;20477;-63
2021/03/14 10:25:22;;;;;;;14.05;3.13;;;;;;;7.85;100.00;100830.78;5022419;28;20050;-62
2021/03/14 10:27:50;;;;;;;10.63;2.60;;;;;;;7.92;100.00;100832.00;5023505;28;20129;-62
2021/03/14 10:30:20;;;;;;;12.40;2.77;;;;;;;7.84;100.00;100823.72;5022880;28;20045;-63
2021/03/14 10:32:47;;;;;;;11.98;3.20;;;;;;;7.87;100.00;100834.19;5029230;28;20592;-63
2021/03/14 10:35:13;;;;;;;15.45;2.95;;;;;;;7.89;100.00;100826.88;5041167;28;20045;-63
2021/03/14 10:37:42;;;;;;;8.25;2.25;;;;;;;7.91;100.00;100832.97;5041104;28;20053;-62
2021/03/14 10:40:11;;;;;;;8.75;2.13;;;;;;;8.03;100.00;100829.31;5042390;28;20049;-62
2021/03/14 10:42:39;;;;;;;11.15;2.22;;;;;;;8.20;100.00;100836.06;5042258;28;20138;-62
2021/03/14 10:45:13;;;;;;;8.73;2.25;;;;;;;8.29;100.00;100844.31;5041370;28;20169;-64
2021/03/14 10:47:39;;;;;;;8.85;2.08;;;;;;;8.41;100.00;100844.22;5042578;28;20045;-62
2021/03/14 10:50:11;;;;;;;10.07;2.20;;;;;;;8.09;100.00;100840.56;5040815;28;20098;-63
2021/03/14 10:52:37;;;;;;;9.48;2.60;;;;;;;8.02;100.00;100849.09;5042635;28;20483;-62
2021/03/14 10:55:30;;;;;;;8.68;2.17;;;;;;;7.76;100.00;100863.63;5041330;28;20060;-63
2021/03/14 10:58:16;;;;;;;8.13;2.58;;;;;;;7.43;100.00;100867.91;5038974;28;20061;-63
2021/03/14 11:00:46;;;;;;;6.60;2.22;;;;;;;7.50;100.00;100877.19;5042452;28;20053;-62
2021/03/14 11:03:27;;;;;;;8.82;2.47;;;;;;;7.37;100.00;100875.41;5042131;28;20140;-62
2021/03/14 11:06:07;;;;;;;13.90;2.70;;;;;;;7.51;100.00;100889.63;5042175;28;20107;-63
2021/03/14 11:08:46;;;;;;;8.60;1.98;;;;;;;7.81;100.00;100875.69;5041130;28;20056;-63
2021/03/14 11:11:12;;;;;;;6.88;1.95;;;;;;;7.85;100.00;100879.00;5041048;28;20045;-63
2021/03/14 11:13:38;;;;;;;11.52;2.30;;;;;;;7.83;100.00;100880.94;5042066;28;20044;-62
2021/03/14 11:16:06;;;;;;;10.45;3.03;;;;;;;7.62;100.00;100891.47;5040944;28;20063;-63
2021/03/14 11:18:32;;;;;;;8.18;2.40;;;;;;;7.47;100.00;100886.31;5040327;28;20098;-63
2021/03/14 11:20:58;;;;;;;7.97;2.42;;;;;;;7.79;100.00;100890.19;5040499;28;20510;-62
2021/03/14 11:23:26;;;;;;;5.85;2.03;;;;;;;7.75;100.00;100896.78;5040393;28;20049;-62
2021/03/14 11:25:52;;;;;;;7.97;2.40;;;;;;;7.86;100.00;100902.13;5042947;28;20053;-62
2021/03/14 11:28:18;;;;;;;10.93;2.22;;;;;;;7.82;100.00;100903.38;5042213;28;20210;-63
2021/03/14 11:34:08;;;;;;;7.88;1.90;;;;;;;7.97;100.00;100902.19;4986246;28;20144;-63
2021/03/14 11:36:33;;;;;;;12.30;2.50;;;;;;;8.18;100.00;100906.84;4980477;28;20526;-62